Report METAR

 


LIBF - Foggia/Gino Lisa, Italy
Distance from station: NE 23km
Dati ricevuti: 30/03/2020 10:50
Sereno
Sereno
 Vento da calmo
Vento: Calma
Temperatura: 15°C
P.to Rugiada: 8°C
Umidità: 63%
Barometro: 1012 hPa
Summary: Sereno
Visibility: superiore a 10 km
2020/03/30 08:50 LIBF 300850Z 00000KT CAVOK 15/08 Q1012
LIRT - Trevico, Italy
Distance from station: SSO 28km
Dati ricevuti: 27/03/2020 19:55
DATI Obsoleti
Nebbia
Nebbia
 Vento da ENE
Vento: ENE 20 km/h
Temperatura: 4°C
Temperatura del Vento: -1°C
P.to Rugiada: 2°C
Umidità: 87%
Barometro: 1010 hPa
Summary: Nebbia
Visibility: 0 km
2020/03/27 18:55 LIRT 271855Z 07011KT 030V100 0000 FG VV/// 04/02 Q1010 RMK MON INVIS VAL INVIS VIS MIN 0000
LIBA - Amendola (it-Afb, Italy
Distance from station: NE 42km
Dati ricevuti: 30/03/2020 10:55
Nubi sparse
Nubi sparse
 Vento da Variabile
Vento: Variabile 2 km/h
Temperatura: 15°C
P.to Rugiada: 7°C
Umidità: 59%
Barometro: 1012 hPa
Nuvole: Nubi sparse
Visibility: 8 km
Cloud details: Nubi sparse 914 m
2020/03/30 08:55 LIBA 300855Z VRB01KT 8000 FEW030 15/07 Q1012 RMK BKN BKN220 VIS MIN 8000 WIND THR11 VRB02KT WIND THR29 /////KT BLU
 
LIRI - Pontecagnano (af, Italy
Distance from station: SSO 81km
Dati ricevuti: 30/03/2020 10:50
Nubi sparse
Nubi sparse
 Vento da NO
Vento: NO 4 km/h
Temperatura: 16°C
P.to Rugiada: 9°C
Umidità: 63%
Barometro: 1012 hPa
Nuvole: Nubi sparse
Visibility: 10 km
Cloud details: Nubi sparse 1829 m
2020/03/30 08:50 LIRI 300850Z 31002KT 9999 FEW060 16/09 Q1012
LIRN - Naples/Capodichi, Italy
Distance from station: OSO 96km
Dati ricevuti: 30/03/2020 10:50
Sereno
Sereno
 Vento da O
Vento: O 6 km/h
Temperatura: 14°C
P.to Rugiada: 9°C
Umidità: 72%
Barometro: 1012 hPa
Summary: Sereno
Visibility: superiore a 10 km
2020/03/30 08:50 LIRN 300850Z 27003KT 250V310 CAVOK 14/09 Q1012 NOSIG
LIRM - Grazzanise (it-A, Italy
Distance from station: OSO 109km
Dati ricevuti: 30/03/2020 10:55
Nubi sparse
Nubi sparse
 Vento da NE
Vento: NE 7 km/h
Temperatura: 15°C
P.to Rugiada: 11°C
Umidità: 77%
Barometro: 1012 hPa
Nuvole: Nubi sparse
Visibility: 10 km
Cloud details: Nubi sparse 762 m
2020/03/30 08:55 LIRM 300855Z 04004KT 9999 FEW025 15/11 Q1012
 
LIBD - Bari/Palese Macc, Italy
Distance from station: E 121km
Dati ricevuti: 30/03/2020 10:50
Sereno
Sereno
 Vento da N
Vento: N 7 km/h
Temperatura: 14°C
P.to Rugiada: 10°C
Umidità: 77%
Barometro: 1012 hPa
Summary: Sereno
Visibility: superiore a 10 km
2020/03/30 08:50 LIBD 300850Z 36004KT 290V070 CAVOK 14/10 Q1012
LIQC - Capri Island, Italy
Distance from station: SO 124km
Dati ricevuti: 30/03/2020 09:55
DATI Obsoleti
Parz. nuvoloso
Parz. nuvoloso
 Vento da ENE
Vento: ENE 7 km/h
Temperatura: 13°C
P.to Rugiada: 10°C
Umidità: 82%
Barometro: 1011 hPa
Nuvole: Parz. nuvoloso
Visibility: 10 km
Cloud details: Parz. nuvoloso 762 m
2020/03/30 07:55 LIQC 300755Z 07004KT 9999 SCT025 13/10 Q1011 RMK SCT QUK 2 QUL 1 NE VIS MAR 12 KM VIS MIN 9999
LIBV - Gioia Del Colle, Italy
Distance from station: ESE 144km
Dati ricevuti: 30/03/2020 10:55
Parz. nuvoloso
Parz. nuvoloso
 Vento da N
Vento: N 9 km/h
Temperatura: 13°C
P.to Rugiada: 6°C
Umidità: 63%
Barometro: 1011 hPa
Nuvole: Parz. nuvoloso
Visibility: 7 km
2020/03/30 08:55 LIBV 300855Z 36005KT 7000 NSC 13/06 Q1011 RMK BKN BKN220 VIS MIN 7000 WIND THR32 36006KT WIND THR14 01005KT WHT
 
LIBP - Pescara, Italy
Distance from station: NO 159km
Dati ricevuti: 30/03/2020 10:50
Parz. nuvoloso
Parz. nuvoloso
 Vento da ENE
Vento: ENE 11 km/h
Temperatura: 15°C
P.to Rugiada: 7°C
Umidità: 59%
Barometro: 1013 hPa
Nuvole: Parz. nuvoloso
Visibility: 9 km
2020/03/30 08:50 LIBP 300850Z 06006KT 030V090 9000 NSC 15/07 Q1013
LIBH - Marina Di Ginosa, Italy
Distance from station: SE 160km
Dati ricevuti: 30/03/2020 10:55
Sereno
Sereno
 Vento da ONO
Vento: ONO 11 km/h
Temperatura: 17°C
P.to Rugiada: 11°C
Umidità: 68%
Barometro: 1011 hPa
Summary: Sereno
Visibility: superiore a 10 km
2020/03/30 08:55 LIBH 300855Z 30006KT 270V340 CAVOK 17/11 Q1011 RMK SCT SCT200 QUK 1 QUL 0 VIS MAR 15 KM VIS MIN 9999
LIRH - Frosinone (it-Af, Italy
Distance from station: ONO 174km
Dati ricevuti: 30/03/2020 10:55
Parz. nuvoloso
Parz. nuvoloso
 Vento da E
Vento: E 6 km/h
Temperatura: 14°C
P.to Rugiada: 10°C
Umidità: 77%
Barometro: 1012 hPa
Nuvole: Parz. nuvoloso
Visibility: 10 km
Cloud details: Parz. nuvoloso 914 m
2020/03/30 08:55 LIRH 300855Z 09003KT 9999 SCT030 14/10 Q1012
 
LIBG - Grottaglie(Civ/A, Italy
Distance from station: ESE 192km
Dati ricevuti: 30/03/2020 10:50
Sereno
Sereno
 Vento da calmo
Vento: Calma
Temperatura: 15°C
P.to Rugiada: 10°C
Umidità: 72%
Barometro: 1012 hPa
Summary: Sereno
Visibility: superiore a 10 km
2020/03/30 08:50 LIBG 300850Z 00000KT CAVOK 15/10 Q1012
LIRL - Latina (it-Afb), Italy
Distance from station: O 205km
Dati ricevuti: 30/03/2020 10:55
Nubi sparse
Nubi sparse
 Vento da calmo
Vento: Calma
Temperatura: 15°C
P.to Rugiada: 12°C
Umidità: 82%
Barometro: 1012 hPa
Nuvole: Nubi sparse
Visibility: 8 km
Cloud details: Nubi sparse 762 m
2020/03/30 08:55 LIRL 300855Z 00000KT 8000 FEW025 15/12 Q1012
LIBR - Brindisi/Casale, Italy
Distance from station: ESE 231km
Dati ricevuti: 30/03/2020 10:50
Molto nuvoloso
Molto nuvoloso
 Vento da N
Vento: N 13 km/h
Temperatura: 14°C
P.to Rugiada: 11°C
Umidità: 82%
Barometro: 1012 hPa
Nuvole: Molto nuvoloso
Visibility: 10 km
Cloud details: Molto nuvoloso 610 m
2020/03/30 08:50 LIBR 300850Z 36007KT 9999 BKN020 14/11 Q1012
 
LIRG - Guidonia (it-Afb, Italy
Distance from station: ONO 232km
Dati ricevuti: 30/03/2020 10:55
Nubi sparse
Nubi sparse
 Vento da ENE
Vento: ENE 4 km/h
Temperatura: 14°C
P.to Rugiada: 8°C
Umidità: 67%
Barometro: 1013 hPa
Nuvole: Nubi sparse
Visibility: 10 km
Cloud details: Nubi sparse 914 m
2020/03/30 08:55 LIRG 300855Z 07002KT 9999 FEW030 14/08 Q1013
LIBQ - Scuro Mountain, Italy
Distance from station: SSE 235km
Dati ricevuti: 29/03/2020 20:55
DATI Obsoleti

 Vento da OSO
Vento: OSO 6 km/h
Temperatura: 3°C
P.to Rugiada: 3°C
Umidità: 100%
Barometro: 1010 hPa
Visibility: 0 km
2020/03/29 18:55 LIBQ 291855Z 25003KT 210V290 0000 VV/// 03/03 Q1010 RMK MON INVIS VAL INVIS VIS MIN 0000
LIRA - Ciampino(It-Afb/, Italy
Distance from station: ONO 236km
Dati ricevuti: 30/03/2020 10:50
Sereno
Sereno
 Vento da Variabile
Vento: Variabile 2 km/h
Temperatura: 15°C
P.to Rugiada: 9°C
Umidità: 68%
Barometro: 1012 hPa
Summary: Sereno
Visibility: superiore a 10 km
2020/03/30 08:50 LIRA 300850Z VRB01KT CAVOK 15/09 Q1012
 
LIQN - Rieti, Italy
Distance from station: ONO 243km
Dati ricevuti: 30/03/2020 10:50
Parz. nuvoloso
Parz. nuvoloso
 Vento da Variabile
Vento: Variabile 6 km/h
Temperatura: 10°C
P.to Rugiada: 9°C
Umidità: 94%
Barometro: 1012 hPa
Nuvole: Parz. nuvoloso
Visibility: 6 km
2020/03/30 08:50 LIQN 300850Z VRB03KT 6000 NSC 10/09 Q1012
LIRE - Pratica Di Mare(, Italy
Distance from station: O 246km
Dati ricevuti: 30/03/2020 10:55
Nubi sparse
Nubi sparse
 Vento da SO
Vento: SO 9 km/h
Temperatura: 13°C
P.to Rugiada: 10°C
Umidità: 82%
Barometro: 1013 hPa
Nuvole: Nubi sparse
Visibility: 10 km
Cloud details: Nubi sparse 671 m
2020/03/30 08:55 LIRE 300855Z 22005KT 9999 FEW022 13/10 Q1013 RMK BKN SCT100 VIS MIN 9999 WIND THR13 24006KT WIND THR31 23005KT BLU